Time;durP1;ratioP1;P1;durP2;ratioP2;P2;SDS_P1;SDS_P2;PMS_P1;PMS_P2;Temp;Humidity;BMP_temperature;BMP_pressure;BME280_temperature;BME280_humidity;BME280_pressure;Samples;Min_cycle;Max_cycle;Signal;HPM_P1;HPM_P2
2021/07/26 00:00:11;;;;;;;14.40;12.23;;;;;;;17.19;100.00;100910.38;3603147;39;20054;-63
2021/07/26 00:02:37;;;;;;;13.43;11.20;;;;;;;17.30;100.00;100918.13;3604097;39;20040;-64
2021/07/26 00:05:05;;;;;;;16.35;13.25;;;;;;;17.28;100.00;100909.28;3606494;39;20313;-63
2021/07/26 00:07:31;;;;;;;16.10;13.75;;;;;;;17.34;100.00;100908.56;3602438;39;20421;-62
2021/07/26 00:09:58;;;;;;;17.42;13.18;;;;;;;17.40;100.00;100902.44;3605231;39;20043;-63
2021/07/26 00:12:24;;;;;;;15.02;13.43;;;;;;;17.45;100.00;100907.31;3603173;39;20346;-64
2021/07/26 00:14:52;;;;;;;14.30;12.80;;;;;;;17.42;100.00;100903.09;3604839;39;20034;-62
2021/07/26 00:17:19;;;;;;;14.93;12.15;;;;;;;17.50;100.00;100908.47;3605344;39;20059;-62
2021/07/26 00:19:45;;;;;;;13.07;10.88;;;;;;;17.51;100.00;100904.72;3605706;39;20044;-63
2021/07/26 00:22:11;;;;;;;16.95;12.68;;;;;;;17.52;100.00;100906.41;3604946;39;20038;-63
2021/07/26 00:24:38;;;;;;;16.58;11.32;;;;;;;17.46;100.00;100909.88;3605437;39;20285;-64
2021/07/26 00:27:05;;;;;;;14.82;12.75;;;;;;;17.37;100.00;100908.19;3606662;39;20030;-64
2021/07/26 00:29:31;;;;;;;15.35;13.23;;;;;;;17.33;100.00;100912.34;3605327;39;20036;-62
2021/07/26 00:31:59;;;;;;;13.60;11.18;;;;;;;17.26;100.00;100906.75;3606484;39;20030;-65
2021/07/26 00:34:26;;;;;;;14.18;12.10;;;;;;;17.28;100.00;100914.72;3607125;39;20051;-63
2021/07/26 00:36:54;;;;;;;14.45;12.15;;;;;;;17.22;100.00;100905.41;3606644;39;20409;-63
2021/07/26 00:39:22;;;;;;;15.07;12.23;;;;;;;17.18;100.00;100906.78;3608532;39;20034;-63
2021/07/26 00:41:49;;;;;;;14.97;12.57;;;;;;;17.18;100.00;100904.06;3608085;39;20040;-65
2021/07/26 00:44:17;;;;;;;15.40;12.43;;;;;;;17.22;100.00;100910.00;3607419;39;20047;-63
2021/07/26 00:46:45;;;;;;;13.63;11.95;;;;;;;17.22;100.00;100905.41;3604289;39;20279;-62
2021/07/26 00:49:14;;;;;;;13.88;11.32;;;;;;;17.25;100.00;100899.59;3607730;39;20020;-64
2021/07/26 00:51:41;;;;;;;;;;;;;;;17.29;100.00;100897.38;3608794;39;20036;-63
2021/07/26 00:54:08;;;;;;;14.98;12.13;;;;;;;17.33;100.00;100891.41;3607741;39;19932;-62
2021/07/26 00:56:35;;;;;;;14.07;11.98;;;;;;;17.33;100.00;100891.41;3607074;39;20046;-63
2021/07/26 00:59:02;;;;;;;15.35;12.75;;;;;;;17.34;100.00;100892.25;3605930;39;20035;-63
2021/07/26 01:01:29;;;;;;;11.80;10.60;;;;;;;17.28;100.00;100882.09;3606641;39;20056;-63
2021/07/26 01:03:55;;;;;;;13.13;11.63;;;;;;;17.20;100.00;100880.28;3607029;39;20042;-62
2021/07/26 01:06:23;;;;;;;14.63;11.35;;;;;;;17.11;100.00;100879.47;3607264;39;20077;-64
2021/07/26 01:08:50;;;;;;;16.13;12.02;;;;;;;16.91;100.00;100870.06;3604735;39;20031;-62
2021/07/26 01:11:17;;;;;;;12.43;10.85;;;;;;;16.87;100.00;100874.13;3603924;39;20031;-62
2021/07/26 01:13:43;;;;;;;16.17;12.43;;;;;;;16.84;100.00;100875.31;3603944;39;20398;-63
2021/07/26 01:16:10;;;;;;;14.70;12.50;;;;;;;16.88;100.00;100873.97;3607652;39;20036;-63
2021/07/26 01:18:37;;;;;;;12.27;10.65;;;;;;;16.92;100.00;100867.16;3607804;39;20366;-63
2021/07/26 01:21:07;;;;;;;12.98;11.27;;;;;;;16.84;100.00;100866.31;3607512;39;20056;-63
2021/07/26 01:23:35;;;;;;;14.52;11.00;;;;;;;16.80;100.00;100868.56;3606091;39;20036;-63
2021/07/26 01:26:04;;;;;;;14.40;11.93;;;;;;;16.71;100.00;100870.47;3606660;39;20051;-63
2021/07/26 01:28:34;;;;;;;14.23;11.85;;;;;;;16.66;100.00;100866.56;3600862;39;20066;-64
2021/07/26 01:31:01;;;;;;;13.38;11.82;;;;;;;16.67;100.00;100863.69;3595378;39;20052;-64
2021/07/26 01:33:27;;;;;;;17.13;11.63;;;;;;;16.67;100.00;100863.69;3595347;40;20040;-64
2021/07/26 01:35:54;;;;;;;14.68;11.68;;;;;;;16.60;100.00;100865.41;3596571;40;20051;-62
2021/07/26 01:38:22;;;;;;;14.45;11.43;;;;;;;16.62;100.00;100871.50;3596085;40;20043;-63
2021/07/26 01:40:53;;;;;;;15.00;12.30;;;;;;;16.55;100.00;100871.38;3596521;39;20044;-62
2021/07/26 01:43:20;;;;;;;12.98;11.63;;;;;;;16.41;100.00;100872.94;3594989;40;20040;-62
2021/07/26 01:45:58;;;;;;;14.40;12.73;;;;;;;16.32;100.00;100871.25;3597225;40;20036;-63
2021/07/26 01:48:30;;;;;;;18.70;13.48;;;;;;;16.28;100.00;100875.34;3596218;40;20068;-64
2021/07/26 01:51:01;;;;;;;14.48;12.52;;;;;;;16.34;100.00;100874.66;3594477;40;20382;-63
2021/07/26 01:53:29;;;;;;;17.00;12.93;;;;;;;16.38;100.00;100876.00;3597430;40;20062;-62
2021/07/26 01:55:56;;;;;;;15.23;11.88;;;;;;;16.33;100.00;100881.13;3596981;39;20038;-63
2021/07/26 01:58:23;;;;;;;14.82;12.60;;;;;;;16.38;100.00;100877.88;3596935;40;20056;-63
2021/07/26 02:00:49;;;;;;;16.00;11.82;;;;;;;16.32;100.00;100875.84;3593729;40;20064;-63
2021/07/26 02:03:16;;;;;;;15.07;13.20;;;;;;;16.31;100.00;100875.00;3597066;40;20382;-62
2021/07/26 02:05:42;;;;;;;15.85;11.88;;;;;;;16.26;100.00;100869.25;3596793;40;20036;-64
2021/07/26 02:08:09;;;;;;;15.00;13.07;;;;;;;16.19;100.00;100870.94;3596914;40;20043;-63
2021/07/26 02:10:37;;;;;;;18.83;13.82;;;;;;;16.09;100.00;100866.56;3597157;40;20033;-63
2021/07/26 02:13:04;;;;;;;15.43;13.55;;;;;;;16.06;100.00;100877.78;3596772;40;20387;-63
2021/07/26 02:15:30;;;;;;;17.60;14.98;;;;;;;16.08;100.00;100888.47;3595330;40;20397;-63
2021/07/26 02:17:56;;;;;;;15.75;12.95;;;;;;;16.09;100.00;100882.00;3597153;40;20388;-63
2021/07/26 02:20:23;;;;;;;18.30;13.48;;;;;;;16.02;100.00;100891.84;3595684;39;20094;-63
2021/07/26 02:22:50;;;;;;;14.23;12.73;;;;;;;16.04;100.00;100889.81;3596813;40;20028;-65
2021/07/26 02:25:17;;;;;;;15.85;14.05;;;;;;;16.01;100.00;100891.00;3597089;40;20043;-64
2021/07/26 02:27:45;;;;;;;16.42;12.70;;;;;;;16.02;100.00;100887.28;3601146;39;20043;-63
2021/07/26 02:30:12;;;;;;;16.70;13.00;;;;;;;16.03;100.00;100879.97;3606429;39;20043;-63
2021/07/26 02:32:39;;;;;;;14.50;12.70;;;;;;;16.03;100.00;100879.97;3607039;39;20262;-65
2021/07/26 02:35:06;;;;;;;16.20;13.40;;;;;;;15.96;100.00;100878.94;3607324;39;20035;-64
2021/07/26 02:37:32;;;;;;;18.05;13.02;;;;;;;15.97;100.00;100884.22;3606200;39;20321;-63
2021/07/26 02:39:59;;;;;;;14.48;12.80;;;;;;;15.91;100.00;100884.91;3605376;39;20030;-65
2021/07/26 02:42:26;;;;;;;16.08;13.07;;;;;;;15.91;100.00;100884.91;3606701;39;20055;-63
2021/07/26 02:44:54;;;;;;;14.70;11.98;;;;;;;15.92;100.00;100886.59;3606953;39;20036;-63
2021/07/26 02:47:20;;;;;;;15.75;13.05;;;;;;;15.90;100.00;100886.78;3606456;39;20039;-64
2021/07/26 02:49:47;;;;;;;14.27;12.77;;;;;;;15.86;100.00;100890.84;3606751;39;20365;-63
2021/07/26 02:52:13;;;;;;;16.92;12.52;;;;;;;15.88;100.00;100883.38;3606311;39;20356;-64
2021/07/26 02:54:40;;;;;;;15.68;12.60;;;;;;;15.87;100.00;100886.25;3607023;39;20044;-63
2021/07/26 02:57:06;;;;;;;15.50;13.45;;;;;;;15.88;100.00;100890.66;3606924;39;20038;-64
2021/07/26 02:59:33;;;;;;;13.55;11.98;;;;;;;15.88;100.00;100882.53;3605104;39;20042;-63
2021/07/26 03:02:01;;;;;;;15.85;13.23;;;;;;;15.93;100.00;100888.31;3606741;39;20038;-63
2021/07/26 03:04:27;;;;;;;17.70;14.43;;;;;;;15.89;100.00;100882.34;3606357;39;20068;-63
2021/07/26 03:06:54;;;;;;;15.65;14.00;;;;;;;15.88;100.00;100885.25;3607258;39;20298;-64
2021/07/26 03:09:20;;;;;;;15.60;13.65;;;;;;;15.88;100.00;100890.66;3608891;39;20036;-65
2021/07/26 03:11:47;;;;;;;14.57;12.57;;;;;;;15.83;100.00;100895.78;3608270;39;20032;-62
2021/07/26 03:14:13;;;;;;;15.82;13.68;;;;;;;15.89;100.00;100887.78;3608284;39;20036;-63
2021/07/26 03:16:39;;;;;;;20.77;15.65;;;;;;;15.89;100.00;100882.34;3607380;39;20024;-65
2021/07/26 03:19:07;;;;;;;18.45;14.63;;;;;;;15.95;100.00;100886.25;3608196;39;20073;-64
2021/07/26 03:21:33;;;;;;;15.75;13.55;;;;;;;15.92;100.00;100883.88;3608009;39;20043;-63
2021/07/26 03:24:00;;;;;;;17.25;13.50;;;;;;;15.94;100.00;100889.97;3608421;39;20350;-64
2021/07/26 03:26:26;;;;;;;17.85;14.73;;;;;;;15.92;100.00;100886.59;3605641;39;20055;-63
2021/07/26 03:28:53;;;;;;;18.83;13.65;;;;;;;15.96;100.00;100887.97;3609102;39;20059;-63
2021/07/26 03:31:19;;;;;;;19.73;15.63;;;;;;;15.98;100.00;100885.06;3607621;39;20039;-63
2021/07/26 03:33:46;;;;;;;15.40;13.45;;;;;;;15.99;100.00;100884.91;3607847;39;20031;-62
2021/07/26 03:36:15;;;;;;;14.65;12.43;;;;;;;15.97;100.00;100884.22;3607801;39;20045;-63
2021/07/26 03:38:42;;;;;;;16.23;13.40;;;;;;;15.94;100.00;100889.97;3607187;39;20036;-62
2021/07/26 03:41:08;;;;;;;19.40;16.23;;;;;;;15.85;100.00;100896.44;3607761;39;20043;-64
2021/07/26 03:43:35;;;;;;;21.00;16.88;;;;;;;15.89;100.00;100892.38;3607625;39;20383;-63
2021/07/26 03:46:01;;;;;;;16.98;15.18;;;;;;;15.89;100.00;100904.06;3607196;39;20494;-63
2021/07/26 03:48:28;;;;;;;16.65;14.25;;;;;;;15.95;100.00;100899.84;3608450;39;20058;-62
2021/07/26 03:50:54;;;;;;;21.08;15.30;;;;;;;15.87;100.00;100899.81;3607557;39;20309;-63
2021/07/26 03:53:22;;;;;;;18.73;15.05;;;;;;;15.88;100.00;100896.09;3608513;39;20038;-63
2021/07/26 03:58:21;;;;;;;22.20;16.23;;;;;;;15.87;100.00;100895.25;3684892;22;20073;-63
2021/07/26 04:00:48;;;;;;;17.67;14.02;;;;;;;15.92;100.00;100902.88;3599570;39;20040;-63
2021/07/26 04:03:20;;;;;;;18.80;15.07;;;;;;;15.93;100.00;100893.75;3600282;39;20479;-63
2021/07/26 04:05:49;;;;;;;18.90;14.85;;;;;;;15.99;100.00;100895.75;3601056;39;20028;-63
2021/07/26 04:08:17;;;;;;;19.45;14.65;;;;;;;16.06;100.00;100899.50;3603601;39;20383;-62
2021/07/26 04:10:47;;;;;;;21.60;16.25;;;;;;;16.22;100.00;100897.75;3600584;39;20020;-63
2021/07/26 04:13:14;;;;;;;18.65;13.93;;;;;;;16.27;100.00;100892.69;3601861;39;20032;-62
2021/07/26 04:15:44;;;;;;;17.75;14.25;;;;;;;16.15;100.00;100899.47;3604170;39;20040;-63
2021/07/26 04:18:11;;;;;;;20.90;13.98;;;;;;;16.18;100.00;100896.41;3603449;39;20666;-62
2021/07/26 04:20:37;;;;;;;17.20;13.85;;;;;;;16.18;100.00;100901.84;3602527;39;20032;-62
2021/07/26 04:23:04;;;;;;;15.93;12.93;;;;;;;16.16;100.00;100899.28;3602457;39;20344;-64
2021/07/26 04:25:30;;;;;;;16.60;12.20;;;;;;;16.08;100.00;100902.88;3601990;39;20032;-63
2021/07/26 04:27:58;;;;;;;15.63;12.55;;;;;;;16.06;100.00;100899.50;3602854;39;20475;-64
2021/07/26 04:30:25;;;;;;;17.95;13.40;;;;;;;16.19;100.00;100900.81;3600475;39;20364;-64
2021/07/26 04:32:51;;;;;;;14.90;12.73;;;;;;;16.21;100.00;100898.78;3600377;39;20037;-62
2021/07/26 04:35:18;;;;;;;20.00;13.45;;;;;;;16.21;100.00;100898.78;3602183;39;20035;-61
2021/07/26 04:37:45;;;;;;;18.80;13.38;;;;;;;16.20;100.00;100900.66;3600566;39;20035;-62
2021/07/26 04:40:12;;;;;;;16.65;13.20;;;;;;;16.31;100.00;100904.88;3601431;39;20035;-62
2021/07/26 04:42:40;;;;;;;16.42;12.60;;;;;;;16.24;100.00;100906.59;3599729;39;20045;-63
2021/07/26 04:45:10;;;;;;;21.85;14.55;;;;;;;16.36;100.00;100907.94;3601724;39;20268;-62
2021/07/26 04:47:36;;;;;;;20.55;13.60;;;;;;;16.35;100.00;100911.66;3598718;39;20040;-63
2021/07/26 04:50:03;;;;;;;19.63;13.70;;;;;;;16.36;100.00;100910.66;3598034;39;20061;-63
2021/07/26 04:52:30;;;;;;;18.70;13.57;;;;;;;16.29;100.00;100910.47;3601723;39;20402;-63
2021/07/26 04:54:56;;;;;;;21.52;14.75;;;;;;;16.39;100.00;100913.00;3601351;39;20059;-64
2021/07/26 04:57:23;;;;;;;22.67;14.90;;;;;;;16.44;100.00;100913.34;3604400;39;20034;-62
2021/07/26 04:59:49;;;;;;;20.63;14.68;;;;;;;16.48;100.00;100913.84;3602278;39;20068;-64
2021/07/26 05:02:17;;;;;;;28.02;15.70;;;;;;;16.48;100.00;100902.13;3602031;39;20042;-62
2021/07/26 05:04:43;;;;;;;23.33;14.95;;;;;;;16.53;100.00;100910.59;3603519;39;20475;-63
2021/07/26 05:07:35;;;;;;;20.52;13.15;;;;;;;16.51;100.00;100908.06;3632840;22;20462;-63
2021/07/26 05:10:02;;;;;;;21.05;14.13;;;;;;;16.58;100.00;100908.22;3569779;40;20045;-62
2021/07/26 05:12:28;;;;;;;18.23;13.32;;;;;;;16.74;100.00;100908.16;3566688;40;20514;-62
2021/07/26 05:14:55;;;;;;;15.63;12.10;;;;;;;16.79;100.00;100904.91;3567428;40;20044;-63
2021/07/26 05:17:26;;;;;;;18.70;13.40;;;;;;;16.89;100.00;100910.19;3574676;40;20041;-63
2021/07/26 05:19:52;;;;;;;16.67;12.02;;;;;;;16.81;100.00;100919.16;3567152;40;20038;-62
2021/07/26 05:22:19;;;;;;;20.80;14.25;;;;;;;16.89;100.00;100910.19;3568667;40;20039;-64
2021/07/26 05:24:46;;;;;;;17.80;13.48;;;;;;;16.92;100.00;100910.66;3564837;40;20299;-62
2021/07/26 05:27:13;;;;;;;22.60;15.27;;;;;;;17.06;100.00;100911.78;3568147;40;20051;-63
2021/07/26 05:29:40;;;;;;;28.33;16.02;;;;;;;17.06;100.00;100910.94;3566020;40;20160;-62
2021/07/26 05:32:07;;;;;;;32.70;17.50;;;;;;;17.12;100.00;100913.81;3564801;40;20040;-64
2021/07/26 05:34:35;;;;;;;29.33;17.10;;;;;;;17.15;100.00;100910.72;3570931;40;20036;-63
2021/07/26 05:37:02;;;;;;;36.08;17.10;;;;;;;17.13;100.00;100907.31;3567801;40;20030;-62
2021/07/26 05:39:28;;;;;;;29.25;16.38;;;;;;;17.10;100.00;100907.69;3567282;40;20040;-63
2021/07/26 05:41:59;;;;;;;26.95;16.95;;;;;;;17.17;100.00;100922.25;3566744;40;20032;-62
2021/07/26 05:44:25;;;;;;;26.02;14.10;;;;;;;17.11;100.00;100912.09;3566026;40;20052;-62
2021/07/26 05:46:52;;;;;;;34.58;16.95;;;;;;;17.21;100.00;100911.03;3566872;40;20037;-63
2021/07/26 05:49:19;;;;;;;29.38;17.50;;;;;;;17.24;100.00;100913.38;3567129;40;20048;-63
2021/07/26 05:51:47;;;;;;;33.58;17.13;;;;;;;17.32;100.00;100925.06;3566985;40;20029;-62
2021/07/26 05:54:13;;;;;;;29.10;16.88;;;;;;;17.48;100.00;100915.13;3566565;40;20040;-62
2021/07/26 05:56:42;;;;;;;25.15;15.45;;;;;;;17.38;100.00;100909.91;3565368;40;20278;-62
2021/07/26 05:59:09;;;;;;;;;;;;;;;17.43;100.00;100907.50;3567787;40;20037;-62
2021/07/26 06:01:47;;;;;;;23.85;14.05;;;;;;;17.48;100.00;100896.06;3562847;40;19939;-64
2021/07/26 06:04:16;;;;;;;28.40;15.73;;;;;;;17.64;100.00;100903.28;3566543;40;20427;-63
2021/07/26 06:06:43;;;;;;;27.13;14.13;;;;;;;17.59;100.00;100895.63;3566410;40;20277;-62
2021/07/26 06:09:11;;;;;;;29.98;15.00;;;;;;;17.68;100.00;100899.16;3566637;40;20380;-64
2021/07/26 06:11:37;;;;;;;24.52;14.45;;;;;;;17.78;100.00;100905.19;3565950;40;20389;-61
2021/07/26 06:14:05;;;;;;;30.40;14.57;;;;;;;17.83;100.00;100894.63;3636727;22;20058;-61
2021/07/26 06:16:32;;;;;;;21.80;13.65;;;;;;;17.85;100.00;100898.00;3600829;39;20034;-62
2021/07/26 06:18:59;;;;;;;22.75;13.77;;;;;;;17.82;100.00;100895.63;3597281;39;20027;-62
2021/07/26 06:21:25;;;;;;;24.42;14.10;;;;;;;17.83;100.00;100897.34;3599810;39;20039;-64
2021/07/26 06:23:52;;;;;;;29.25;15.98;;;;;;;17.96;100.00;100896.75;3600010;39;20031;-62
2021/07/26 06:26:20;;;;;;;25.15;13.45;;;;;;;18.01;100.00;100898.91;3600532;39;20038;-64
2021/07/26 06:28:46;;;;;;;22.55;13.40;;;;;;;18.03;100.00;100889.53;3604505;39;20038;-62
2021/07/26 06:31:12;;;;;;;21.40;12.93;;;;;;;18.07;100.00;100898.19;3599706;39;20036;-64
2021/07/26 06:33:39;;;;;;;19.38;12.90;;;;;;;18.27;100.00;100897.63;3601655;39;20048;-62
2021/07/26 06:36:06;;;;;;;24.10;13.57;;;;;;;18.46;100.00;100891.66;3601574;39;20300;-63
2021/07/26 06:38:32;;;;;;;27.17;13.15;;;;;;;18.53;100.00;100884.41;3602569;39;20043;-63
2021/07/26 06:40:59;;;;;;;22.25;12.82;;;;;;;18.68;100.00;100883.56;3602200;39;20044;-62
2021/07/26 06:43:27;;;;;;;25.38;14.10;;;;;;;18.76;100.00;100882.59;3604546;39;20379;-63
2021/07/26 06:45:53;;;;;;;23.08;13.27;;;;;;;18.78;100.00;100895.03;3602737;39;20413;-62
2021/07/26 06:48:21;;;;;;;21.80;11.85;;;;;;;18.56;100.00;100883.19;3603590;39;20097;-65
2021/07/26 06:50:47;;;;;;;22.30;13.33;;;;;;;18.55;100.00;100884.22;3602278;39;20062;-62
2021/07/26 06:53:14;;;;;;;19.75;12.63;;;;;;;18.69;100.00;100883.38;3604087;39;20044;-62
2021/07/26 06:55:41;;;;;;;19.77;11.95;;;;;;;18.85;100.00;100884.22;3604306;39;20032;-64
2021/07/26 06:58:08;;;;;;;18.25;11.50;;;;;;;19.00;100.00;100887.78;3602100;39;20324;-65
2021/07/26 07:00:36;;;;;;;20.35;12.27;;;;;;;18.94;100.00;100887.72;3603355;39;20034;-67
2021/07/26 07:03:02;;;;;;;25.60;14.13;;;;;;;19.05;100.00;100895.38;3602479;39;20032;-63
2021/07/26 07:05:29;;;;;;;22.25;12.68;;;;;;;19.13;100.00;100899.91;3602474;39;20447;-66
2021/07/26 07:07:55;;;;;;;19.17;11.38;;;;;;;19.36;100.00;100894.25;3602926;39;20030;-63
2021/07/26 07:10:22;;;;;;;15.07;11.57;;;;;;;19.25;100.00;100890.16;3603120;39;20387;-66
2021/07/26 07:12:50;;;;;;;15.23;11.05;;;;;;;19.25;100.00;100895.63;3604266;39;20051;-65
2021/07/26 07:15:19;;;;;;;15.90;11.25;;;;;;;19.46;100.00;100903.00;3605900;39;20302;-65
2021/07/26 07:17:47;;;;;;;17.48;11.75;;;;;;;19.59;100.00;100903.13;3602314;39;20028;-64
2021/07/26 07:20:14;;;;;;;14.98;11.98;;;;;;;19.72;100.00;100912.50;3600940;39;20036;-64
2021/07/26 07:22:40;;;;;;;17.80;11.70;;;;;;;20.01;100.00;100906.06;3601650;39;20122;-64
2021/07/26 07:25:08;;;;;;;19.27;13.10;;;;;;;20.12;100.00;100910.16;3603053;39;20391;-64
2021/07/26 07:27:34;;;;;;;17.48;11.48;;;;;;;20.40;100.00;100904.66;3599571;39;20032;-63
2021/07/26 07:30:01;;;;;;;20.27;10.93;;;;;;;20.51;100.00;100892.34;3604719;39;20083;-64
2021/07/26 07:32:28;;;;;;;16.77;9.68;;;;;;;20.74;100.00;100888.50;3602473;39;20414;-64
2021/07/26 07:34:55;;;;;;;15.57;10.98;;;;;;;20.69;100.00;100896.47;3602957;39;20109;-64
2021/07/26 07:37:23;;;;;;;15.13;10.85;;;;;;;20.94;100.00;100896.81;3602136;39;20035;-66
2021/07/26 07:39:49;;;;;;;16.20;10.63;;;;;;;20.89;100.00;100897.44;3603697;39;20335;-64
2021/07/26 07:42:16;;;;;;;13.93;11.23;;;;;;;20.57;100.00;100905.22;3601469;39;20069;-65
2021/07/26 07:44:42;;;;;;;15.57;10.63;;;;;;;20.49;100.00;100905.34;3604957;39;20040;-64
2021/07/26 07:47:11;;;;;;;15.07;10.82;;;;;;;20.29;100.00;100897.88;3604635;39;20039;-63
2021/07/26 07:49:38;;;;;;;14.13;12.10;;;;;;;20.11;100.00;100895.66;3603257;39;20035;-63
2021/07/26 07:52:07;;;;;;;13.13;11.25;;;;;;;20.18;100.00;100906.63;3600397;39;20398;-63
2021/07/26 07:54:34;;;;;;;13.65;11.80;;;;;;;19.98;100.00;100908.34;3603075;39;20364;-62
2021/07/26 07:57:00;;;;;;;15.20;12.52;;;;;;;19.97;100.00;100904.78;3602778;39;20295;-62
2021/07/26 07:59:27;;;;;;;14.20;12.70;;;;;;;19.82;100.00;100907.59;3602667;39;20393;-63
2021/07/26 08:01:53;;;;;;;17.85;14.05;;;;;;;19.68;100.00;100911.19;3603392;39;20515;-64
2021/07/26 08:04:20;;;;;;;19.35;13.70;;;;;;;19.79;100.00;100913.44;3603596;39;20047;-65
2021/07/26 08:06:46;;;;;;;14.90;13.40;;;;;;;19.63;100.00;100903.59;3602049;39;20015;-65
2021/07/26 08:09:14;;;;;;;15.85;14.20;;;;;;;19.69;100.00;100907.44;3605991;39;20038;-66
2021/07/26 08:11:41;;;;;;;16.10;14.40;;;;;;;19.76;100.00;100911.91;3603204;39;20031;-63
2021/07/26 08:14:07;;;;;;;16.33;14.15;;;;;;;20.18;100.00;100900.31;3599767;39;20028;-63
2021/07/26 08:16:34;;;;;;;17.33;12.85;;;;;;;20.26;100.00;100901.00;3605089;39;20024;-65
2021/07/26 08:19:00;;;;;;;17.27;13.57;;;;;;;20.21;100.00;100900.75;3602298;39;20077;-63
2021/07/26 08:21:28;;;;;;;15.38;13.13;;;;;;;20.16;100.00;100913.34;3599407;39;20345;-66
2021/07/26 08:23:55;;;;;;;15.30;13.00;;;;;;;20.18;100.00;100903.88;3600086;39;20039;-63
2021/07/26 08:26:22;;;;;;;15.10;13.60;;;;;;;20.21;100.00;100902.66;3604752;39;20032;-63
2021/07/26 08:28:49;;;;;;;18.73;13.55;;;;;;;20.19;100.00;100902.00;3604289;39;20042;-63
2021/07/26 08:31:15;;;;;;;15.93;12.25;;;;;;;20.31;100.00;100903.97;3598960;39;20040;-63
2021/07/26 08:33:42;;;;;;;14.35;12.75;;;;;;;20.42;100.00;100904.47;3605412;39;20036;-63
2021/07/26 08:36:10;;;;;;;15.40;12.40;;;;;;;20.98;100.00;100904.41;3599598;39;20039;-64
2021/07/26 08:38:36;;;;;;;18.58;11.98;;;;;;;21.06;100.00;100908.00;3601575;39;20035;-63
2021/07/26 08:41:03;;;;;;;12.57;10.73;;;;;;;20.62;100.00;100899.97;3603362;39;20045;-65
2021/07/26 08:43:31;;;;;;;12.30;11.00;;;;;;;20.31;100.00;100906.72;3603113;39;20040;-64
2021/07/26 08:45:58;;;;;;;13.63;11.98;;;;;;;20.68;100.00;100906.56;3604198;39;20387;-64
2021/07/26 08:48:25;;;;;;;13.40;10.73;;;;;;;20.79;100.00;100908.72;3600041;39;20060;-64
2021/07/26 08:50:54;;;;;;;15.68;11.35;;;;;;;20.86;100.00;100913.38;3603073;39;20051;-64
2021/07/26 08:53:22;;;;;;;14.75;11.75;;;;;;;20.99;100.00;100913.44;3601507;39;20032;-63
2021/07/26 08:55:49;;;;;;;13.25;10.32;;;;;;;21.04;100.00;100915.56;3598609;39;20044;-65
2021/07/26 08:58:16;;;;;;;12.27;10.23;;;;;;;21.34;100.00;100907.91;3600012;39;20068;-63
2021/07/26 09:00:44;;;;;;;11.23;10.02;;;;;;;21.48;100.00;100912.34;3602694;39;20043;-66
2021/07/26 09:03:11;;;;;;;12.32;9.32;;;;;;;21.77;100.00;100909.47;3602175;39;20026;-64
2021/07/26 09:05:37;;;;;;;12.52;9.90;;;;;;;21.47;100.00;100907.91;3603427;39;20052;-66
2021/07/26 09:08:04;;;;;;;15.73;11.05;;;;;;;21.59;100.00;100918.31;3603310;39;20024;-63
2021/07/26 09:10:36;;;;;;;12.05;9.80;;;;;;;21.68;100.00;100912.41;3603662;39;20036;-63
2021/07/26 09:13:02;;;;;;;12.45;9.77;;;;;;;20.94;100.00;100919.53;3602530;39;20378;-63
2021/07/26 09:15:31;;;;;;;11.98;9.82;;;;;;;20.75;100.00;100923.03;3602013;39;20387;-63
2021/07/26 09:18:01;;;;;;;11.48;9.93;;;;;;;20.74;100.00;100919.41;3605120;39;20059;-65
2021/07/26 09:20:29;;;;;;;11.60;8.93;;;;;;;20.51;100.00;100927.91;3599071;39;20397;-63
2021/07/26 09:22:58;;;;;;;10.52;9.48;;;;;;;20.18;100.00;100931.22;3599103;39;20031;-64
2021/07/26 09:25:26;;;;;;;9.90;8.95;;;;;;;20.87;100.00;100926.03;3604902;39;20410;-63
2021/07/26 09:28:04;;;;;;;9.20;8.30;;;;;;;21.47;100.00;100910.66;3604126;39;20035;-62
2021/07/26 09:30:36;;;;;;;12.40;9.20;;;;;;;21.84;100.00;100918.56;3601006;39;20046;-62
2021/07/26 09:33:05;;;;;;;13.63;9.90;;;;;;;21.81;100.00;100905.28;3603754;39;20380;-63
2021/07/26 09:35:32;;;;;;;9.02;8.07;;;;;;;21.87;100.00;100909.91;3603306;39;20058;-64
2021/07/26 09:40:50;;;;;;;9.52;6.97;;;;;;;22.69;100.00;100906.91;3628172;22;20429;-64
2021/07/26 09:43:20;;;;;;;20.08;7.70;;;;;;;22.51;100.00;100904.81;3597394;40;20039;-62
2021/07/26 09:45:47;;;;;;;12.07;7.60;;;;;;;22.36;100.00;100911.41;3596351;40;20116;-62
2021/07/26 09:48:16;;;;;;;8.95;7.47;;;;;;;22.31;100.00;100905.69;3590919;40;20077;-61
2021/07/26 09:50:43;;;;;;;;;;;;;;;22.38;100.00;100902.97;3592423;39;20047;-64
2021/07/26 09:53:12;;;;;;;8.30;7.40;;;;;;;22.42;100.00;100897.88;3590122;40;19932;-62
2021/07/26 09:55:41;;;;;;;10.20;7.22;;;;;;;22.35;100.00;100896.00;3596849;40;20291;-63
2021/07/26 09:58:08;;;;;;;9.52;7.20;;;;;;;22.79;100.00;100903.69;3594928;39;20036;-63
2021/07/26 10:00:36;;;;;;;7.80;6.65;;;;;;;22.88;100.00;100899.69;3595863;40;20108;-62
2021/07/26 10:03:06;;;;;;;7.75;5.70;;;;;;;22.93;100.00;100897.13;3595037;40;20028;-63
2021/07/26 10:05:34;;;;;;;8.43;5.68;;;;;;;22.67;100.00;100893.41;3594324;40;20035;-62
2021/07/26 10:08:02;;;;;;;8.48;6.35;;;;;;;23.03;100.00;100897.50;3587517;39;20328;-64
2021/07/26 10:10:29;;;;;;;6.65;5.47;;;;;;;23.09;100.00;100901.28;3594420;40;20074;-62
2021/07/26 10:12:56;;;;;;;11.35;6.22;;;;;;;22.94;100.00;100909.78;3593325;40;20052;-63
2021/07/26 10:15:23;;;;;;;9.48;6.35;;;;;;;23.06;100.00;100902.53;3596567;40;20046;-64
2021/07/26 10:17:49;;;;;;;6.90;5.60;;;;;;;23.18;100.00;100893.66;3594730;40;20035;-61
2021/07/26 10:20:20;;;;;;;6.95;5.32;;;;;;;23.32;100.00;100898.03;3595591;40;20039;-62
2021/07/26 10:22:58;;;;;;;7.82;5.85;;;;;;;24.18;100.00;100897.63;3592593;40;20273;-62
2021/07/26 10:25:32;;;;;;;7.13;5.93;;;;;;;24.30;100.00;100899.41;3593529;40;20110;-62
2021/07/26 10:28:00;;;;;;;5.88;5.28;;;;;;;23.86;100.00;100892.19;3593675;39;20051;-63
2021/07/26 10:30:35;;;;;;;6.90;5.55;;;;;;;23.41;100.00;100893.94;3592697;40;20055;-63
2021/07/26 10:33:02;;;;;;;6.05;5.45;;;;;;;23.54;100.00;100897.66;3596572;40;20301;-62
2021/07/26 10:35:39;;;;;;;7.70;6.03;;;;;;;23.00;100.00;100897.94;3591264;40;20052;-62
2021/07/26 10:38:11;;;;;;;6.57;5.38;;;;;;;22.92;100.00;100901.78;3595480;39;20036;-62
2021/07/26 10:40:39;;;;;;;9.10;6.38;;;;;;;22.81;100.00;100904.34;3592515;40;20134;-62
2021/07/26 10:43:06;;;;;;;8.15;6.10;;;;;;;22.62;100.00;100897.84;3589467;40;20412;-64
2021/07/26 10:46:03;;;;;;;6.88;5.35;;;;;;;22.47;100.00;100907.16;3591511;40;20106;-62
2021/07/26 10:48:34;;;;;;;9.45;6.20;;;;;;;22.22;100.00;100901.47;3594760;40;20052;-62
2021/07/26 10:51:01;;;;;;;7.32;6.57;;;;;;;22.09;100.00;100901.50;3590636;40;20339;-62
2021/07/26 10:54:00;;;;;;;7.40;6.70;;;;;;;21.86;100.00;100906.34;3594802;40;20373;-62
2021/07/26 10:56:26;;;;;;;7.75;5.50;;;;;;;22.25;100.00;100902.97;3592780;40;20263;-63
2021/07/26 10:59:04;;;;;;;7.13;5.18;;;;;;;22.64;100.00;100899.31;3592503;39;20031;-63
2021/07/26 11:02:04;;;;;;;6.25;4.68;;;;;;;22.98;100.00;100893.72;3592861;39;20039;-62
2021/07/26 11:04:35;;;;;;;6.50;5.63;;;;;;;23.03;100.00;100889.25;3591540;39;20096;-62
2021/07/26 11:07:06;;;;;;;6.25;4.50;;;;;;;23.24;100.00;100890.03;3589825;39;20063;-62
2021/07/26 11:09:42;;;;;;;4.78;3.90;;;;;;;23.65;100.00;100896.97;3591394;40;20432;-62
2021/07/26 11:12:08;;;;;;;5.20;3.95;;;;;;;23.49;100.00;100883.75;3592552;40;20029;-61